< < Back
Terminal Aerodrome Forecast


Current Version              Previous Versions:   1  2  3  4  5  6  7  8  9  

Terminal Aerodrome Forecast

568
FTUS42 KGSP 251733
TAFAVL
TAF
KAVL 251733Z 2518/2618 17010G16KT P6SM BKN045
     FM260100 17005KT P6SM VCSH OVC040
     FM260500 16006KT 5SM BR OVC025 PROB30 2605/2609 3SM TSRA BR
      OVC015CB
     FM260900 17005KT 3SM BR VCSH OVC008
     FM261400 17007KT P6SM VCSH OVC020=



Latest METAR

969
SAUS70 KWBC 251900 RRG
MTRAVL
METAR KAVL 251854Z 17012G16KT 10SM CLR 26/12 A3030 RMK AO2 SLP238
T02560117 $


USA.gov is the U.S. government's official web portal to all federal, state and local government web resources and services.